Perdido, Alabama
Current Conditions -  °F | °C
As of 8:53 PM on Thursday 27 Nov 2014 (Local Time) from KBFM Reporting Station
Clear Clear  
Wind Chill: 43°   Ceiling: Unl
Heat Index: 47°   Visibility: 10mi
Dew Point: 33°   Wind: 9mph
Humidity: 59%   Direction: 350°N
Pressure: 30.46"   Gusts: NA
Location:  31.01°N, 87.63°W
Report Text: KBFM 280253Z 35008KT 10SM CLR 08/01 A3046 RMK AO2 SLP313 T00830006 51012
Loading
Personal Weather Stations






























Interactive Weather Map New forecast layout! Learn more

10-Day Weather Forecast

Advertisements
Track Severe Weather on mobile